createdAt,value
2022-10-13T00:04:39.380Z,100.00
2022-10-13T00:09:42.016Z,100.00
2022-10-13T00:14:44.714Z,100.00
2022-10-13T00:19:47.375Z,100.00
2022-10-13T00:24:53.495Z,100.00
2022-10-13T00:29:56.893Z,100.00
2022-10-13T00:34:59.597Z,100.00
2022-10-13T00:40:02.313Z,100.00
2022-10-13T00:45:20.319Z,100.00
2022-10-13T00:50:33.609Z,100.00
2022-10-13T00:55:38.766Z,100.00
2022-10-13T01:00:45.274Z,100.00
2022-10-13T01:05:50.379Z,100.00
2022-10-13T01:11:33.871Z,100.00
2022-10-13T01:17:22.988Z,100.00
2022-10-13T01:22:47.053Z,100.00
2022-10-13T01:27:49.647Z,100.00
2022-10-13T01:32:57.977Z,100.00
2022-10-13T01:38:38.749Z,100.00
2022-10-13T01:43:51.710Z,100.00
2022-10-13T01:48:58.999Z,100.00
2022-10-13T01:54:01.933Z,100.00
2022-10-13T01:59:14.572Z,100.00
2022-10-13T02:04:32.394Z,100.00
2022-10-13T02:10:05.007Z,100.00
2022-10-13T02:15:12.720Z,100.00
2022-10-13T02:20:19.282Z,100.00
2022-10-13T02:25:22.133Z,100.00
2022-10-13T02:30:27.616Z,100.00
2022-10-13T02:35:31.111Z,100.00
2022-10-13T02:40:34.101Z,100.00
2022-10-13T02:45:36.796Z,100.00
2022-10-13T02:50:39.500Z,100.00
2022-10-13T02:55:42.195Z,100.00
2022-10-13T03:00:44.968Z,100.00
2022-10-13T03:05:47.693Z,100.00
2022-10-13T03:10:50.401Z,100.00
2022-10-13T03:15:53.056Z,100.00
2022-10-13T03:21:00.606Z,100.00
2022-10-13T03:26:04.620Z,100.00
2022-10-13T03:31:09.655Z,100.00
2022-10-13T03:36:16.190Z,100.00
2022-10-13T03:41:20.536Z,100.00
2022-10-13T03:46:26.460Z,100.00
2022-10-13T03:51:29.121Z,100.00
2022-10-13T03:56:31.811Z,100.00
2022-10-13T04:01:34.499Z,100.00
2022-10-13T04:06:37.286Z,100.00
2022-10-13T04:11:39.965Z,100.00
2022-10-13T04:16:42.684Z,100.00
2022-10-13T04:21:45.508Z,100.00
2022-10-13T04:26:48.399Z,100.00
2022-10-13T04:31:51.088Z,100.00
2022-10-13T04:36:54.090Z,100.00
2022-10-13T04:41:56.759Z,100.00
2022-10-13T04:47:00.921Z,100.00
2022-10-13T04:52:04.033Z,100.00
2022-10-13T04:57:06.654Z,100.00
2022-10-13T05:02:10.655Z,100.00
2022-10-13T05:07:17.972Z,100.00
2022-10-13T05:12:21.421Z,100.00
2022-10-13T05:17:24.445Z,100.00
2022-10-13T05:22:28.627Z,100.00
2022-10-13T05:27:31.292Z,100.00
2022-10-13T05:32:35.859Z,100.00
2022-10-13T05:37:38.580Z,100.00
2022-10-13T05:42:41.555Z,100.00
2022-10-13T05:47:44.367Z,100.00
2022-10-13T05:52:57.572Z,100.00
2022-10-13T05:58:02.214Z,100.00
2022-10-13T06:03:15.164Z,100.00
2022-10-13T06:08:30.258Z,100.00
2022-10-13T06:13:57.608Z,100.00
2022-10-13T06:19:15.748Z,100.00
2022-10-13T06:24:28.385Z,100.00
2022-10-13T06:29:44.864Z,100.00
2022-10-13T06:40:18.807Z,100.00
2022-10-13T06:45:21.540Z,100.00
2022-10-13T06:50:24.267Z,100.00
2022-10-13T06:55:27.076Z,100.00
2022-10-13T07:00:31.776Z,100.00
2022-10-13T07:05:34.598Z,100.00
2022-10-13T07:10:38.916Z,100.00
2022-10-13T07:15:43.867Z,100.00
2022-10-13T07:20:48.978Z,100.00
2022-10-13T07:25:54.297Z,100.00
2022-10-13T07:31:00.250Z,100.00
2022-10-13T07:36:06.730Z,100.00
2022-10-13T07:41:11.774Z,100.00
2022-10-13T07:46:14.529Z,100.00
2022-10-13T07:51:17.223Z,100.00
2022-10-13T07:56:20.018Z,100.00
2022-10-13T08:01:22.860Z,100.00
2022-10-13T08:06:25.619Z,100.00
2022-10-13T08:11:28.320Z,99.76
2022-10-13T08:16:32.496Z,98.76
2022-10-13T08:27:02.668Z,96.31
2022-10-13T08:32:05.533Z,95.33
2022-10-13T08:37:19.085Z,94.86
2022-10-13T08:42:22.736Z,93.05
2022-10-13T08:48:09.458Z,91.50
2022-10-13T08:54:05.908Z,91.06
2022-10-13T08:59:22.780Z,89.98
2022-10-13T09:04:48.183Z,89.41
2022-10-13T09:09:53.905Z,89.10
2022-10-13T09:15:10.101Z,88.76
2022-10-13T09:20:30.666Z,88.01
2022-10-13T09:25:48.950Z,86.71
2022-10-13T09:31:23.404Z,85.19
2022-10-13T09:36:26.677Z,84.44
2022-10-13T09:41:30.284Z,83.19
2022-10-13T09:46:45.950Z,82.37
2022-10-13T09:51:49.279Z,81.83
2022-10-13T09:57:12.114Z,81.65
2022-10-13T10:02:45.494Z,79.75
2022-10-13T10:07:49.292Z,77.83
2022-10-13T10:12:54.967Z,76.49
2022-10-13T10:18:12.394Z,75.49
2022-10-13T10:24:02.839Z,73.91
2022-10-13T10:29:25.141Z,72.45
2022-10-13T10:35:02.937Z,71.65
2022-10-13T10:40:22.291Z,72.02
2022-10-13T10:45:39.429Z,71.86
2022-10-13T10:50:46.419Z,72.51
2022-10-13T10:56:28.363Z,71.61
2022-10-13T11:01:45.103Z,69.97
2022-10-13T11:06:48.066Z,69.64
2022-10-13T11:12:45.356Z,68.72
2022-10-13T11:17:48.244Z,68.97
2022-10-13T11:23:10.086Z,68.84
2022-10-13T11:28:24.348Z,67.41
2022-10-13T11:33:48.178Z,67.27
2022-10-13T11:39:22.426Z,66.89
2022-10-13T11:44:39.879Z,66.17
2022-10-13T11:49:54.714Z,66.16
2022-10-13T11:55:12.613Z,65.93
2022-10-13T12:00:18.470Z,64.48
2022-10-13T12:05:21.166Z,65.77
2022-10-13T12:10:28.532Z,65.39
2022-10-13T12:15:42.462Z,64.34
2022-10-13T12:20:52.372Z,63.85
2022-10-13T12:25:58.837Z,63.40
2022-10-13T12:31:01.603Z,62.83
2022-10-13T12:36:14.465Z,62.94
2022-10-13T12:41:20.129Z,62.23
2022-10-13T12:46:45.453Z,62.76
2022-10-13T12:52:14.608Z,63.33
2022-10-13T12:57:35.918Z,63.93
2022-10-13T13:02:38.916Z,64.23
2022-10-13T13:07:52.754Z,63.92
2022-10-13T13:12:56.431Z,63.66
2022-10-13T13:18:27.245Z,63.85
2022-10-13T13:23:34.382Z,63.20
2022-10-13T13:28:47.606Z,63.42
2022-10-13T13:33:50.669Z,63.53
2022-10-13T13:38:53.828Z,63.23
2022-10-13T13:43:57.468Z,63.26
2022-10-13T13:49:00.189Z,63.29
2022-10-13T13:54:02.977Z,63.57
2022-10-13T13:59:05.626Z,63.46
2022-10-13T14:04:08.341Z,63.41
2022-10-13T14:09:11.019Z,63.92
2022-10-13T14:14:14.426Z,63.85
2022-10-13T14:19:17.171Z,63.91
2022-10-13T14:24:20.602Z,64.44
2022-10-13T14:29:23.405Z,64.85
2022-10-13T14:34:26.149Z,64.85
2022-10-13T14:39:28.891Z,64.76
2022-10-13T14:44:31.504Z,64.88
2022-10-13T14:49:34.137Z,65.11
2022-10-13T14:54:43.905Z,64.95
2022-10-13T14:59:47.678Z,64.38
2022-10-13T15:04:50.411Z,63.71
2022-10-13T15:10:04.367Z,63.85
2022-10-13T15:15:08.492Z,63.71
2022-10-13T15:20:11.371Z,64.19
2022-10-13T15:25:14.575Z,64.91
2022-10-13T15:30:17.146Z,65.41
2022-10-13T15:35:19.892Z,65.88
2022-10-13T15:40:22.535Z,66.40
2022-10-13T15:45:25.466Z,67.74
2022-10-13T15:50:28.386Z,69.03
2022-10-13T15:55:32.716Z,70.65
2022-10-13T16:00:39.790Z,72.07
2022-10-13T16:05:44.971Z,73.62
2022-10-13T16:10:47.635Z,75.33
2022-10-13T16:15:58.160Z,76.48
2022-10-13T16:21:01.136Z,77.87
2022-10-13T16:26:05.983Z,79.25
2022-10-13T16:31:13.748Z,81.06
2022-10-13T16:36:19.030Z,82.36
2022-10-13T16:41:21.967Z,83.35
2022-10-13T16:46:24.711Z,84.06
2022-10-13T16:51:28.206Z,84.86
2022-10-13T16:56:31.644Z,85.99
2022-10-13T17:01:36.357Z,87.15
2022-10-13T17:06:40.846Z,88.04
2022-10-13T17:11:43.854Z,88.66
2022-10-13T17:16:46.841Z,89.47
2022-10-13T17:21:49.843Z,90.22
2022-10-13T17:26:53.884Z,91.43
2022-10-13T17:31:56.587Z,92.50
2022-10-13T17:36:59.444Z,93.16
2022-10-13T17:42:02.218Z,93.55
2022-10-13T17:47:04.962Z,94.29
2022-10-13T17:52:07.653Z,95.05
2022-10-13T17:57:10.401Z,95.55
2022-10-13T18:02:13.770Z,95.98
2022-10-13T18:07:18.306Z,96.66
2022-10-13T18:12:21.257Z,97.48
2022-10-13T18:17:24.114Z,97.66
2022-10-13T18:22:27.528Z,97.74
2022-10-13T18:27:30.172Z,97.98
2022-10-13T18:32:33.695Z,98.56
2022-10-13T18:37:37.290Z,98.83
2022-10-13T18:42:43.349Z,98.97
2022-10-13T18:47:52.148Z,99.28
2022-10-13T18:52:54.782Z,99.93
2022-10-13T18:57:57.439Z,100.00
2022-10-13T19:03:00.100Z,100.00
2022-10-13T19:08:02.762Z,100.00
2022-10-13T19:13:05.429Z,100.00
2022-10-13T19:18:08.805Z,100.00
2022-10-13T19:23:15.803Z,100.00
2022-10-13T19:28:19.560Z,100.00
2022-10-13T19:33:22.329Z,100.00
2022-10-13T19:38:24.985Z,100.00
2022-10-13T19:43:27.787Z,100.00
2022-10-13T19:48:30.446Z,100.00
2022-10-13T19:53:34.141Z,100.00
2022-10-13T19:58:37.014Z,100.00
2022-10-13T20:03:39.683Z,100.00
2022-10-13T20:08:42.720Z,100.00
2022-10-13T20:13:46.789Z,100.00
2022-10-13T20:18:58.090Z,100.00
2022-10-13T20:24:00.777Z,100.00
2022-10-13T20:29:03.614Z,100.00
2022-10-13T20:34:06.493Z,100.00
2022-10-13T20:39:09.297Z,100.00
2022-10-13T20:44:12.170Z,100.00
2022-10-13T20:49:14.891Z,100.00
2022-10-13T20:54:17.635Z,100.00
2022-10-13T20:59:20.659Z,100.00
2022-10-13T21:04:23.289Z,100.00
2022-10-13T21:09:26.012Z,100.00
2022-10-13T21:14:28.773Z,100.00
2022-10-13T21:19:31.550Z,100.00
2022-10-13T21:24:34.650Z,100.00
2022-10-13T21:29:37.303Z,100.00
2022-10-13T21:34:40.083Z,100.00
2022-10-13T21:39:42.889Z,100.00
2022-10-13T21:44:45.506Z,100.00
2022-10-13T21:49:48.166Z,100.00
2022-10-13T21:54:51.166Z,100.00
2022-10-13T21:59:54.107Z,100.00
2022-10-13T22:04:56.806Z,100.00
2022-10-13T22:09:59.426Z,100.00
2022-10-13T22:15:02.169Z,100.00
2022-10-13T22:20:05.249Z,100.00
2022-10-13T22:25:08.490Z,100.00
2022-10-13T22:30:11.192Z,100.00
2022-10-13T22:35:13.926Z,100.00
2022-10-13T22:40:16.662Z,100.00
2022-10-13T22:45:19.397Z,100.00
2022-10-13T22:50:22.028Z,100.00
2022-10-13T22:55:24.694Z,100.00
2022-10-13T23:00:27.389Z,100.00
2022-10-13T23:05:30.396Z,100.00
2022-10-13T23:10:33.026Z,100.00
2022-10-13T23:15:38.148Z,100.00
2022-10-13T23:20:41.774Z,100.00
2022-10-13T23:25:44.876Z,100.00
2022-10-13T23:30:47.574Z,100.00
2022-10-13T23:36:01.435Z,100.00
2022-10-13T23:41:07.025Z,100.00
2022-10-13T23:46:13.288Z,100.00
2022-10-13T23:51:19.268Z,100.00
2022-10-13T23:56:23.216Z,100.00
